sensor_id;sensor_type;location;lat;lon;timestamp;temperature;humidity
54938;DHT22;52756;52.826;6.214;2023-03-20T00:01:30;9.80;81.90
54938;DHT22;52756;52.826;6.214;2023-03-20T00:03:56;9.80;81.70
54938;DHT22;52756;52.826;6.214;2023-03-20T00:06:24;9.80;81.60
54938;DHT22;52756;52.826;6.214;2023-03-20T00:08:52;9.80;81.50
54938;DHT22;52756;52.826;6.214;2023-03-20T00:11:30;9.80;81.40
54938;DHT22;52756;52.826;6.214;2023-03-20T00:14:09;9.80;81.30
54938;DHT22;52756;52.826;6.214;2023-03-20T00:16:40;9.80;81.20
54938;DHT22;52756;52.826;6.214;2023-03-20T00:19:22;9.80;81.20
54938;DHT22;52756;52.826;6.214;2023-03-20T00:21:49;9.80;81.10
54938;DHT22;52756;52.826;6.214;2023-03-20T00:24:16;9.80;81.10
54938;DHT22;52756;52.826;6.214;2023-03-20T00:26:43;9.80;81.00
54938;DHT22;52756;52.826;6.214;2023-03-20T00:31:46;9.90;80.90
54938;DHT22;52756;52.826;6.214;2023-03-20T00:34:14;9.90;80.80
54938;DHT22;52756;52.826;6.214;2023-03-20T00:36:41;9.90;80.80
54938;DHT22;52756;52.826;6.214;2023-03-20T00:39:07;9.90;80.80
54938;DHT22;52756;52.826;6.214;2023-03-20T00:44:51;9.90;80.50
54938;DHT22;52756;52.826;6.214;2023-03-20T00:47:20;9.90;80.40
54938;DHT22;52756;52.826;6.214;2023-03-20T00:49:48;9.80;80.50
54938;DHT22;52756;52.826;6.214;2023-03-20T00:52:16;9.90;80.50
54938;DHT22;52756;52.826;6.214;2023-03-20T00:54:42;9.80;80.40
54938;DHT22;52756;52.826;6.214;2023-03-20T00:59:39;9.80;80.40
54938;DHT22;52756;52.826;6.214;2023-03-20T01:02:06;9.90;80.40
54938;DHT22;52756;52.826;6.214;2023-03-20T01:04:40;9.90;80.40
54938;DHT22;52756;52.826;6.214;2023-03-20T01:07:11;9.80;80.30
54938;DHT22;52756;52.826;6.214;2023-03-20T01:09:38;9.90;80.30
54938;DHT22;52756;52.826;6.214;2023-03-20T01:12:04;9.80;80.20
54938;DHT22;52756;52.826;6.214;2023-03-20T01:14:32;9.80;80.20
54938;DHT22;52756;52.826;6.214;2023-03-20T01:16:58;9.90;80.20
54938;DHT22;52756;52.826;6.214;2023-03-20T01:19:25;9.80;80.20
54938;DHT22;52756;52.826;6.214;2023-03-20T01:21:50;9.80;80.20
54938;DHT22;52756;52.826;6.214;2023-03-20T01:24:16;9.80;80.20
54938;DHT22;52756;52.826;6.214;2023-03-20T01:26:43;9.80;80.20
54938;DHT22;52756;52.826;6.214;2023-03-20T01:29:18;9.80;80.20
54938;DHT22;52756;52.826;6.214;2023-03-20T01:31:44;9.80;80.10
54938;DHT22;52756;52.826;6.214;2023-03-20T01:34:10;9.80;80.10
54938;DHT22;52756;52.826;6.214;2023-03-20T01:36:36;9.80;80.10
54938;DHT22;52756;52.826;6.214;2023-03-20T01:39:03;9.80;80.20
54938;DHT22;52756;52.826;6.214;2023-03-20T01:41:29;9.80;80.20
54938;DHT22;52756;52.826;6.214;2023-03-20T01:43:56;9.80;80.20
54938;DHT22;52756;52.826;6.214;2023-03-20T01:46:23;9.80;80.20
54938;DHT22;52756;52.826;6.214;2023-03-20T01:51:25;9.80;80.20
54938;DHT22;52756;52.826;6.214;2023-03-20T01:54:13;9.80;80.20
54938;DHT22;52756;52.826;6.214;2023-03-20T01:57:07;9.80;80.10
54938;DHT22;52756;52.826;6.214;2023-03-20T01:59:49;9.80;80.20
54938;DHT22;52756;52.826;6.214;2023-03-20T02:02:20;9.80;80.30
54938;DHT22;52756;52.826;6.214;2023-03-20T02:04:49;9.80;80.30
54938;DHT22;52756;52.826;6.214;2023-03-20T02:07:18;9.80;80.30
54938;DHT22;52756;52.826;6.214;2023-03-20T02:09:46;9.80;80.30
54938;DHT22;52756;52.826;6.214;2023-03-20T02:12:13;9.80;80.30
54938;DHT22;52756;52.826;6.214;2023-03-20T02:14:39;9.80;80.20
54938;DHT22;52756;52.826;6.214;2023-03-20T02:17:08;9.80;80.20
54938;DHT22;52756;52.826;6.214;2023-03-20T02:42:01;9.70;79.70
54938;DHT22;52756;52.826;6.214;2023-03-20T02:44:37;9.70;80.00
54938;DHT22;52756;52.826;6.214;2023-03-20T02:47:25;9.70;79.90
54938;DHT22;52756;52.826;6.214;2023-03-20T02:52:38;9.70;79.80
54938;DHT22;52756;52.826;6.214;2023-03-20T02:57:53;9.70;79.80
54938;DHT22;52756;52.826;6.214;2023-03-20T03:01:06;9.70;79.60
54938;DHT22;52756;52.826;6.214;2023-03-20T03:03:36;9.60;79.70
54938;DHT22;52756;52.826;6.214;2023-03-20T03:06:23;9.60;79.60
54938;DHT22;52756;52.826;6.214;2023-03-20T03:08:55;9.70;79.60
54938;DHT22;52756;52.826;6.214;2023-03-20T03:11:22;9.70;79.70
54938;DHT22;52756;52.826;6.214;2023-03-20T03:13:52;9.70;80.10
54938;DHT22;52756;52.826;6.214;2023-03-20T03:16:24;9.70;79.70
54938;DHT22;52756;52.826;6.214;2023-03-20T03:21:29;9.70;79.60
54938;DHT22;52756;52.826;6.214;2023-03-20T03:23:56;9.70;79.90
54938;DHT22;52756;52.826;6.214;2023-03-20T03:26:27;9.70;79.50
54938;DHT22;52756;52.826;6.214;2023-03-20T03:29:16;9.70;79.40
54938;DHT22;52756;52.826;6.214;2023-03-20T03:31:43;9.70;79.20
54938;DHT22;52756;52.826;6.214;2023-03-20T03:34:15;9.70;79.30
54938;DHT22;52756;52.826;6.214;2023-03-20T03:44:40;9.70;78.90
54938;DHT22;52756;52.826;6.214;2023-03-20T03:47:23;9.60;78.80
54938;DHT22;52756;52.826;6.214;2023-03-20T03:49:57;9.70;78.70
54938;DHT22;52756;52.826;6.214;2023-03-20T03:52:25;9.70;78.70
54938;DHT22;52756;52.826;6.214;2023-03-20T03:55:02;9.60;78.50
54938;DHT22;52756;52.826;6.214;2023-03-20T03:57:41;9.70;78.50
54938;DHT22;52756;52.826;6.214;2023-03-20T04:00:10;9.60;78.40
54938;DHT22;52756;52.826;6.214;2023-03-20T04:02:37;9.60;78.40
54938;DHT22;52756;52.826;6.214;2023-03-20T04:05:05;9.70;78.40
54938;DHT22;52756;52.826;6.214;2023-03-20T04:07:31;9.60;78.30
54938;DHT22;52756;52.826;6.214;2023-03-20T04:09:57;9.60;78.20
54938;DHT22;52756;52.826;6.214;2023-03-20T04:12:33;9.60;78.20
54938;DHT22;52756;52.826;6.214;2023-03-20T04:15:00;9.60;78.10
54938;DHT22;52756;52.826;6.214;2023-03-20T04:17:26;9.60;78.10
54938;DHT22;52756;52.826;6.214;2023-03-20T04:19:51;9.60;78.10
54938;DHT22;52756;52.826;6.214;2023-03-20T04:22:17;9.60;78.10
54938;DHT22;52756;52.826;6.214;2023-03-20T04:24:43;9.60;78.00
54938;DHT22;52756;52.826;6.214;2023-03-20T04:27:08;9.60;78.00
54938;DHT22;52756;52.826;6.214;2023-03-20T04:29:34;9.60;77.90
54938;DHT22;52756;52.826;6.214;2023-03-20T04:32:00;9.60;77.90
54938;DHT22;52756;52.826;6.214;2023-03-20T04:34:26;9.60;77.90
54938;DHT22;52756;52.826;6.214;2023-03-20T04:36:52;9.60;77.80
54938;DHT22;52756;52.826;6.214;2023-03-20T04:39:17;9.50;77.70
54938;DHT22;52756;52.826;6.214;2023-03-20T04:41:43;9.50;77.60
54938;DHT22;52756;52.826;6.214;2023-03-20T04:44:09;9.50;77.60
54938;DHT22;52756;52.826;6.214;2023-03-20T04:46:34;9.50;77.60
54938;DHT22;52756;52.826;6.214;2023-03-20T04:49:00;9.50;77.70
54938;DHT22;52756;52.826;6.214;2023-03-20T04:51:26;9.50;77.70
54938;DHT22;52756;52.826;6.214;2023-03-20T04:53:51;9.50;77.60
54938;DHT22;52756;52.826;6.214;2023-03-20T04:56:17;9.50;77.60
54938;DHT22;52756;52.826;6.214;2023-03-20T04:58:43;9.40;77.50
54938;DHT22;52756;52.826;6.214;2023-03-20T05:01:08;9.40;77.60
54938;DHT22;52756;52.826;6.214;2023-03-20T05:03:34;9.40;77.60
54938;DHT22;52756;52.826;6.214;2023-03-20T05:06:00;9.40;77.70
54938;DHT22;52756;52.826;6.214;2023-03-20T05:08:25;9.40;77.70
54938;DHT22;52756;52.826;6.214;2023-03-20T05:10:52;9.40;77.70
54938;DHT22;52756;52.826;6.214;2023-03-20T05:13:17;9.40;77.70
54938;DHT22;52756;52.826;6.214;2023-03-20T05:15:43;9.40;77.70
54938;DHT22;52756;52.826;6.214;2023-03-20T05:18:09;9.30;77.70
54938;DHT22;52756;52.826;6.214;2023-03-20T05:20:35;9.40;77.70
54938;DHT22;52756;52.826;6.214;2023-03-20T05:23:01;9.40;77.60
54938;DHT22;52756;52.826;6.214;2023-03-20T05:25:27;9.30;77.50
54938;DHT22;52756;52.826;6.214;2023-03-20T05:27:53;9.30;77.40
54938;DHT22;52756;52.826;6.214;2023-03-20T05:30:19;9.30;77.40
54938;DHT22;52756;52.826;6.214;2023-03-20T05:32:48;9.30;77.40
54938;DHT22;52756;52.826;6.214;2023-03-20T05:35:13;9.30;77.50
54938;DHT22;52756;52.826;6.214;2023-03-20T05:37:39;9.30;77.50
54938;DHT22;52756;52.826;6.214;2023-03-20T05:40:06;9.30;77.40
54938;DHT22;52756;52.826;6.214;2023-03-20T05:42:31;9.30;77.40
54938;DHT22;52756;52.826;6.214;2023-03-20T05:44:57;9.20;77.40
54938;DHT22;52756;52.826;6.214;2023-03-20T05:47:23;9.20;77.40
54938;DHT22;52756;52.826;6.214;2023-03-20T05:49:48;9.20;77.40
54938;DHT22;52756;52.826;6.214;2023-03-20T05:52:14;9.20;77.40
54938;DHT22;52756;52.826;6.214;2023-03-20T05:54:40;9.20;77.40
54938;DHT22;52756;52.826;6.214;2023-03-20T05:57:06;9.20;77.80
54938;DHT22;52756;52.826;6.214;2023-03-20T05:59:31;9.20;77.30
54938;DHT22;52756;52.826;6.214;2023-03-20T06:01:57;9.20;77.30
54938;DHT22;52756;52.826;6.214;2023-03-20T06:04:23;9.20;77.30
54938;DHT22;52756;52.826;6.214;2023-03-20T06:06:48;9.20;77.40
54938;DHT22;52756;52.826;6.214;2023-03-20T06:09:14;9.20;77.40
54938;DHT22;52756;52.826;6.214;2023-03-20T06:11:40;9.20;77.50
54938;DHT22;52756;52.826;6.214;2023-03-20T06:14:05;9.20;77.50
54938;DHT22;52756;52.826;6.214;2023-03-20T06:16:31;9.20;77.60
54938;DHT22;52756;52.826;6.214;2023-03-20T06:18:57;9.20;77.60
54938;DHT22;52756;52.826;6.214;2023-03-20T06:21:23;9.20;77.60
54938;DHT22;52756;52.826;6.214;2023-03-20T06:23:49;9.20;77.60
54938;DHT22;52756;52.826;6.214;2023-03-20T06:26:15;9.20;77.70
54938;DHT22;52756;52.826;6.214;2023-03-20T06:28:41;9.20;77.60
54938;DHT22;52756;52.826;6.214;2023-03-20T06:31:07;9.20;77.60
54938;DHT22;52756;52.826;6.214;2023-03-20T06:33:34;9.20;77.60
54938;DHT22;52756;52.826;6.214;2023-03-20T06:36:00;9.20;77.70
54938;DHT22;52756;52.826;6.214;2023-03-20T06:38:25;9.20;77.70
54938;DHT22;52756;52.826;6.214;2023-03-20T06:40:51;9.20;77.60
54938;DHT22;52756;52.826;6.214;2023-03-20T06:43:17;9.20;77.40
54938;DHT22;52756;52.826;6.214;2023-03-20T06:45:43;9.20;77.30
54938;DHT22;52756;52.826;6.214;2023-03-20T06:48:09;9.20;77.30
54938;DHT22;52756;52.826;6.214;2023-03-20T06:50:35;9.20;77.40
54938;DHT22;52756;52.826;6.214;2023-03-20T06:53:02;9.30;77.40
54938;DHT22;52756;52.826;6.214;2023-03-20T06:55:28;9.30;77.40
54938;DHT22;52756;52.826;6.214;2023-03-20T06:57:54;9.30;77.40
54938;DHT22;52756;52.826;6.214;2023-03-20T07:00:20;9.30;77.40
54938;DHT22;52756;52.826;6.214;2023-03-20T07:02:46;9.30;77.30
54938;DHT22;52756;52.826;6.214;2023-03-20T07:05:13;9.30;77.20
54938;DHT22;52756;52.826;6.214;2023-03-20T07:07:39;9.30;77.30
54938;DHT22;52756;52.826;6.214;2023-03-20T07:10:05;9.30;77.30
54938;DHT22;52756;52.826;6.214;2023-03-20T07:12:31;9.30;77.20
54938;DHT22;52756;52.826;6.214;2023-03-20T07:14:57;9.30;77.10
54938;DHT22;52756;52.826;6.214;2023-03-20T07:17:23;9.40;77.00
54938;DHT22;52756;52.826;6.214;2023-03-20T07:19:49;9.30;76.90
54938;DHT22;52756;52.826;6.214;2023-03-20T07:22:23;9.40;76.70
54938;DHT22;52756;52.826;6.214;2023-03-20T07:24:50;9.40;76.60
54938;DHT22;52756;52.826;6.214;2023-03-20T07:27:16;9.40;76.50
54938;DHT22;52756;52.826;6.214;2023-03-20T07:29:42;9.40;76.40
54938;DHT22;52756;52.826;6.214;2023-03-20T07:32:08;9.40;76.30
54938;DHT22;52756;52.826;6.214;2023-03-20T07:34:35;9.40;76.30
54938;DHT22;52756;52.826;6.214;2023-03-20T07:37:00;9.40;76.20
54938;DHT22;52756;52.826;6.214;2023-03-20T07:39:26;9.50;76.30
54938;DHT22;52756;52.826;6.214;2023-03-20T07:41:52;9.50;76.30
54938;DHT22;52756;52.826;6.214;2023-03-20T07:44:18;9.50;76.40
54938;DHT22;52756;52.826;6.214;2023-03-20T07:46:45;9.50;76.40
54938;DHT22;52756;52.826;6.214;2023-03-20T07:49:15;9.50;76.30
54938;DHT22;52756;52.826;6.214;2023-03-20T07:51:48;9.60;76.40
54938;DHT22;52756;52.826;6.214;2023-03-20T07:54:14;9.60;76.40
54938;DHT22;52756;52.826;6.214;2023-03-20T07:56:40;9.60;76.30
54938;DHT22;52756;52.826;6.214;2023-03-20T07:59:06;9.60;76.30
54938;DHT22;52756;52.826;6.214;2023-03-20T08:01:31;9.70;76.40
54938;DHT22;52756;52.826;6.214;2023-03-20T08:03:57;9.70;76.30
54938;DHT22;52756;52.826;6.214;2023-03-20T08:06:23;9.70;76.20
54938;DHT22;52756;52.826;6.214;2023-03-20T08:08:48;9.70;76.10
54938;DHT22;52756;52.826;6.214;2023-03-20T08:11:17;9.80;76.10
54938;DHT22;52756;52.826;6.214;2023-03-20T08:13:44;9.80;75.90
54938;DHT22;52756;52.826;6.214;2023-03-20T08:16:10;9.80;75.70
54938;DHT22;52756;52.826;6.214;2023-03-20T08:18:36;9.90;76.10
54938;DHT22;52756;52.826;6.214;2023-03-20T08:21:02;9.90;75.70
54938;DHT22;52756;52.826;6.214;2023-03-20T08:23:28;9.90;75.40
54938;DHT22;52756;52.826;6.214;2023-03-20T08:25:54;10.00;75.30
54938;DHT22;52756;52.826;6.214;2023-03-20T08:28:20;10.00;75.30
54938;DHT22;52756;52.826;6.214;2023-03-20T08:30:46;10.10;75.20
54938;DHT22;52756;52.826;6.214;2023-03-20T08:33:13;10.10;75.10
54938;DHT22;52756;52.826;6.214;2023-03-20T08:35:39;10.20;75.10
54938;DHT22;52756;52.826;6.214;2023-03-20T08:38:05;10.20;75.00
54938;DHT22;52756;52.826;6.214;2023-03-20T08:40:31;10.30;75.00
54938;DHT22;52756;52.826;6.214;2023-03-20T08:42:57;10.30;74.90
54938;DHT22;52756;52.826;6.214;2023-03-20T08:45:23;10.40;74.80
54938;DHT22;52756;52.826;6.214;2023-03-20T08:47:51;10.40;74.80
54938;DHT22;52756;52.826;6.214;2023-03-20T08:50:17;10.50;74.50
54938;DHT22;52756;52.826;6.214;2023-03-20T08:52:43;10.60;74.00
54938;DHT22;52756;52.826;6.214;2023-03-20T08:55:13;10.60;73.60
54938;DHT22;52756;52.826;6.214;2023-03-20T08:57:40;10.60;73.40
54938;DHT22;52756;52.826;6.214;2023-03-20T09:00:07;10.70;73.20
54938;DHT22;52756;52.826;6.214;2023-03-20T09:02:33;10.80;73.00
54938;DHT22;52756;52.826;6.214;2023-03-20T09:04:59;10.80;72.90
54938;DHT22;52756;52.826;6.214;2023-03-20T09:07:25;10.90;72.90
54938;DHT22;52756;52.826;6.214;2023-03-20T09:09:51;10.90;72.80
54938;DHT22;52756;52.826;6.214;2023-03-20T09:12:17;11.00;72.80
54938;DHT22;52756;52.826;6.214;2023-03-20T09:14:43;11.10;72.60
54938;DHT22;52756;52.826;6.214;2023-03-20T09:17:09;11.10;72.20
54938;DHT22;52756;52.826;6.214;2023-03-20T09:19:35;11.20;71.50
54938;DHT22;52756;52.826;6.214;2023-03-20T09:22:04;11.30;71.30
54938;DHT22;52756;52.826;6.214;2023-03-20T09:24:30;11.30;71.20
54938;DHT22;52756;52.826;6.214;2023-03-20T09:26:57;11.40;71.40
54938;DHT22;52756;52.826;6.214;2023-03-20T09:29:25;11.40;71.40
54938;DHT22;52756;52.826;6.214;2023-03-20T09:31:52;11.50;70.90
54938;DHT22;52756;52.826;6.214;2023-03-20T09:34:19;11.60;70.40
54938;DHT22;52756;52.826;6.214;2023-03-20T09:36:45;11.60;70.40
54938;DHT22;52756;52.826;6.214;2023-03-20T09:39:11;11.70;70.20
54938;DHT22;52756;52.826;6.214;2023-03-20T09:41:37;11.70;70.00
54938;DHT22;52756;52.826;6.214;2023-03-20T09:49:44;11.90;69.00
54938;DHT22;52756;52.826;6.214;2023-03-20T09:55:00;11.90;69.10
54938;DHT22;52756;52.826;6.214;2023-03-20T10:00:16;11.90;69.20
54938;DHT22;52756;52.826;6.214;2023-03-20T10:03:03;11.90;68.80
54938;DHT22;52756;52.826;6.214;2023-03-20T10:05:38;12.00;68.50
54938;DHT22;52756;52.826;6.214;2023-03-20T10:08:06;12.00;68.10
54938;DHT22;52756;52.826;6.214;2023-03-20T10:18:48;12.00;68.10
54938;DHT22;52756;52.826;6.214;2023-03-20T10:21:22;12.00;68.00
54938;DHT22;52756;52.826;6.214;2023-03-20T10:23:56;12.00;67.60
54938;DHT22;52756;52.826;6.214;2023-03-20T10:26:23;12.00;67.60
54938;DHT22;52756;52.826;6.214;2023-03-20T10:29:00;12.00;67.70
54938;DHT22;52756;52.826;6.214;2023-03-20T10:37:13;12.00;67.30
54938;DHT22;52756;52.826;6.214;2023-03-20T10:42:24;11.90;67.40
54938;DHT22;52756;52.826;6.214;2023-03-20T10:45:00;11.90;67.00
54938;DHT22;52756;52.826;6.214;2023-03-20T10:47:29;11.90;67.20
54938;DHT22;52756;52.826;6.214;2023-03-20T10:50:00;11.90;67.60
54938;DHT22;52756;52.826;6.214;2023-03-20T10:52:30;12.00;67.60
54938;DHT22;52756;52.826;6.214;2023-03-20T10:55:22;11.90;67.40
54938;DHT22;52756;52.826;6.214;2023-03-20T10:57:51;12.00;67.80
54938;DHT22;52756;52.826;6.214;2023-03-20T11:00:24;12.00;68.10
54938;DHT22;52756;52.826;6.214;2023-03-20T11:02:50;12.00;67.70
54938;DHT22;52756;52.826;6.214;2023-03-20T11:05:27;12.00;67.60
54938;DHT22;52756;52.826;6.214;2023-03-20T11:08:11;12.00;67.50
54938;DHT22;52756;52.826;6.214;2023-03-20T11:10:39;12.00;67.10
54938;DHT22;52756;52.826;6.214;2023-03-20T11:15:53;12.00;66.80
54938;DHT22;52756;52.826;6.214;2023-03-20T11:18:19;11.90;67.20
54938;DHT22;52756;52.826;6.214;2023-03-20T11:20:51;11.90;67.30
54938;DHT22;52756;52.826;6.214;2023-03-20T11:23:22;11.90;67.10
54938;DHT22;52756;52.826;6.214;2023-03-20T11:25:52;11.90;67.10
54938;DHT22;52756;52.826;6.214;2023-03-20T11:28:25;11.90;66.90
54938;DHT22;52756;52.826;6.214;2023-03-20T11:31:16;11.90;66.90
54938;DHT22;52756;52.826;6.214;2023-03-20T11:33:45;11.90;67.10
54938;DHT22;52756;52.826;6.214;2023-03-20T11:36:23;11.90;67.20
54938;DHT22;52756;52.826;6.214;2023-03-20T11:38:50;11.90;67.30
54938;DHT22;52756;52.826;6.214;2023-03-20T11:41:26;11.90;67.40
54938;DHT22;52756;52.826;6.214;2023-03-20T11:43:52;11.90;67.50
54938;DHT22;52756;52.826;6.214;2023-03-20T11:46:20;11.90;67.50
54938;DHT22;52756;52.826;6.214;2023-03-20T11:49:14;11.90;67.70
54938;DHT22;52756;52.826;6.214;2023-03-20T11:51:43;12.00;68.40
54938;DHT22;52756;52.826;6.214;2023-03-20T11:54:14;12.00;68.30
54938;DHT22;52756;52.826;6.214;2023-03-20T11:56:51;12.00;68.00
54938;DHT22;52756;52.826;6.214;2023-03-20T11:59:17;12.00;68.00
54938;DHT22;52756;52.826;6.214;2023-03-20T12:01:49;12.00;67.90
54938;DHT22;52756;52.826;6.214;2023-03-20T12:07:04;12.00;68.90
54938;DHT22;52756;52.826;6.214;2023-03-20T12:18:03;12.00;71.40
54938;DHT22;52756;52.826;6.214;2023-03-20T12:26:23;12.00;72.50
54938;DHT22;52756;52.826;6.214;2023-03-20T12:34:42;12.00;72.80
54938;DHT22;52756;52.826;6.214;2023-03-20T12:37:10;11.90;72.90
54938;DHT22;52756;52.826;6.214;2023-03-20T12:39:42;11.60;73.30
54938;DHT22;52756;52.826;6.214;2023-03-20T12:45:15;11.80;73.60
54938;DHT22;52756;52.826;6.214;2023-03-20T12:48:08;11.80;74.00
54938;DHT22;52756;52.826;6.214;2023-03-20T12:50:39;11.70;74.00
54938;DHT22;52756;52.826;6.214;2023-03-20T13:01:19;11.60;74.20
54938;DHT22;52756;52.826;6.214;2023-03-20T13:17:59;11.30;75.40
54938;DHT22;52756;52.826;6.214;2023-03-20T13:20:38;11.30;75.60
54938;DHT22;52756;52.826;6.214;2023-03-20T13:23:24;11.20;75.90
54938;DHT22;52756;52.826;6.214;2023-03-20T13:39:33;11.20;77.10
54938;DHT22;52756;52.826;6.214;2023-03-20T13:42:03;11.20;77.20
54938;DHT22;52756;52.826;6.214;2023-03-20T13:44:31;11.20;77.30
54938;DHT22;52756;52.826;6.214;2023-03-20T13:47:23;11.20;77.50
54938;DHT22;52756;52.826;6.214;2023-03-20T13:53:26;11.20;77.60
54938;DHT22;52756;52.826;6.214;2023-03-20T14:01:04;11.10;77.40
54938;DHT22;52756;52.826;6.214;2023-03-20T14:03:42;11.10;77.50
54938;DHT22;52756;52.826;6.214;2023-03-20T14:08:54;11.10;77.80
54938;DHT22;52756;52.826;6.214;2023-03-20T14:17:18;11.00;78.10
54938;DHT22;52756;52.826;6.214;2023-03-20T14:19:45;11.00;78.10
54938;DHT22;52756;52.826;6.214;2023-03-20T14:22:22;11.00;78.20
54938;DHT22;52756;52.826;6.214;2023-03-20T14:24:59;11.00;78.30
54938;DHT22;52756;52.826;6.214;2023-03-20T14:27:33;11.00;78.30
54938;DHT22;52756;52.826;6.214;2023-03-20T14:33:04;11.00;78.30
54938;DHT22;52756;52.826;6.214;2023-03-20T14:35:38;11.00;78.30
54938;DHT22;52756;52.826;6.214;2023-03-20T14:41:19;11.00;78.60
54938;DHT22;52756;52.826;6.214;2023-03-20T14:48:54;11.00;79.20
54938;DHT22;52756;52.826;6.214;2023-03-20T14:51:32;10.90;79.30
54938;DHT22;52756;52.826;6.214;2023-03-20T14:56:47;11.00;79.70
54938;DHT22;52756;52.826;6.214;2023-03-20T14:59:15;10.90;79.60
54938;DHT22;52756;52.826;6.214;2023-03-20T15:02:00;10.90;79.70
54938;DHT22;52756;52.826;6.214;2023-03-20T15:04:28;10.90;79.90
54938;DHT22;52756;52.826;6.214;2023-03-20T15:09:31;10.90;80.20
54938;DHT22;52756;52.826;6.214;2023-03-20T15:11:58;10.90;80.20
54938;DHT22;52756;52.826;6.214;2023-03-20T15:14:33;10.90;80.20
54938;DHT22;52756;52.826;6.214;2023-03-20T15:17:02;10.90;80.40
54938;DHT22;52756;52.826;6.214;2023-03-20T15:19:29;10.90;80.50
54938;DHT22;52756;52.826;6.214;2023-03-20T15:21:55;10.90;80.60
54938;DHT22;52756;52.826;6.214;2023-03-20T15:24:26;10.90;80.60
54938;DHT22;52756;52.826;6.214;2023-03-20T15:26:56;10.90;80.80
54938;DHT22;52756;52.826;6.214;2023-03-20T15:29:22;10.90;80.80
54938;DHT22;52756;52.826;6.214;2023-03-20T15:31:57;10.90;80.80
54938;DHT22;52756;52.826;6.214;2023-03-20T15:34:26;10.90;81.10
54938;DHT22;52756;52.826;6.214;2023-03-20T15:37:01;10.90;81.20
54938;DHT22;52756;52.826;6.214;2023-03-20T15:39:29;10.90;81.30
54938;DHT22;52756;52.826;6.214;2023-03-20T15:42:11;10.90;81.40
54938;DHT22;52756;52.826;6.214;2023-03-20T15:44:39;10.90;81.60
54938;DHT22;52756;52.826;6.214;2023-03-20T15:49:41;10.90;81.70
54938;DHT22;52756;52.826;6.214;2023-03-20T15:54:55;10.90;81.80
54938;DHT22;52756;52.826;6.214;2023-03-20T15:57:42;10.90;81.90
54938;DHT22;52756;52.826;6.214;2023-03-20T16:02:40;10.80;81.80
54938;DHT22;52756;52.826;6.214;2023-03-20T16:05:12;10.80;81.80
54938;DHT22;52756;52.826;6.214;2023-03-20T16:07:38;10.80;82.00
54938;DHT22;52756;52.826;6.214;2023-03-20T16:10:19;10.80;81.90
54938;DHT22;52756;52.826;6.214;2023-03-20T16:12:52;10.80;82.00
54938;DHT22;52756;52.826;6.214;2023-03-20T16:15:23;10.80;82.10
54938;DHT22;52756;52.826;6.214;2023-03-20T16:17:52;10.80;82.10
54938;DHT22;52756;52.826;6.214;2023-03-20T16:20:20;10.80;82.30
54938;DHT22;52756;52.826;6.214;2023-03-20T16:22:47;10.80;82.30
54938;DHT22;52756;52.826;6.214;2023-03-20T16:25:14;10.70;82.20
54938;DHT22;52756;52.826;6.214;2023-03-20T16:27:42;10.70;82.20
54938;DHT22;52756;52.826;6.214;2023-03-20T16:30:20;10.70;82.30
54938;DHT22;52756;52.826;6.214;2023-03-20T16:32:49;10.70;82.40
54938;DHT22;52756;52.826;6.214;2023-03-20T16:35:28;10.70;82.50
54938;DHT22;52756;52.826;6.214;2023-03-20T16:37:57;10.70;82.60
54938;DHT22;52756;52.826;6.214;2023-03-20T16:42:53;10.70;82.70
54938;DHT22;52756;52.826;6.214;2023-03-20T16:45:28;10.70;82.70
54938;DHT22;52756;52.826;6.214;2023-03-20T16:48:23;10.70;82.80
54938;DHT22;52756;52.826;6.214;2023-03-20T16:51:15;10.70;82.70
54938;DHT22;52756;52.826;6.214;2023-03-20T16:53:44;10.70;82.90
54938;DHT22;52756;52.826;6.214;2023-03-20T16:56:17;10.70;82.90
54938;DHT22;52756;52.826;6.214;2023-03-20T16:58:46;10.70;82.90
54938;DHT22;52756;52.826;6.214;2023-03-20T17:01:18;10.70;82.90
54938;DHT22;52756;52.826;6.214;2023-03-20T17:08:50;10.60;83.00
54938;DHT22;52756;52.826;6.214;2023-03-20T17:11:37;10.60;83.00
54938;DHT22;52756;52.826;6.214;2023-03-20T17:14:03;10.60;82.90
54938;DHT22;52756;52.826;6.214;2023-03-20T17:16:30;10.60;83.00
54938;DHT22;52756;52.826;6.214;2023-03-20T17:19:17;10.60;83.00
54938;DHT22;52756;52.826;6.214;2023-03-20T17:21:44;10.60;82.90
54938;DHT22;52756;52.826;6.214;2023-03-20T17:24:11;10.60;83.00
54938;DHT22;52756;52.826;6.214;2023-03-20T17:26:38;10.60;83.00
54938;DHT22;52756;52.826;6.214;2023-03-20T17:29:05;10.60;83.10
54938;DHT22;52756;52.826;6.214;2023-03-20T17:31:30;10.60;83.10
54938;DHT22;52756;52.826;6.214;2023-03-20T17:33:56;10.60;83.10
54938;DHT22;52756;52.826;6.214;2023-03-20T17:36:29;10.60;83.10
54938;DHT22;52756;52.826;6.214;2023-03-20T17:38:56;10.60;83.10
54938;DHT22;52756;52.826;6.214;2023-03-20T17:41:22;10.60;83.10
54938;DHT22;52756;52.826;6.214;2023-03-20T17:43:49;10.60;83.10
54938;DHT22;52756;52.826;6.214;2023-03-20T17:46:29;10.60;83.20
54938;DHT22;52756;52.826;6.214;2023-03-20T17:49:01;10.50;83.10
54938;DHT22;52756;52.826;6.214;2023-03-20T17:51:28;10.60;83.20
54938;DHT22;52756;52.826;6.214;2023-03-20T17:53:54;10.50;83.20
54938;DHT22;52756;52.826;6.214;2023-03-20T17:56:23;10.50;83.20
54938;DHT22;52756;52.826;6.214;2023-03-20T17:58:49;10.60;83.20
54938;DHT22;52756;52.826;6.214;2023-03-20T18:01:16;10.50;83.20
54938;DHT22;52756;52.826;6.214;2023-03-20T18:03:42;10.50;83.20
54938;DHT22;52756;52.826;6.214;2023-03-20T18:06:22;10.50;83.20
54938;DHT22;52756;52.826;6.214;2023-03-20T18:08:48;10.60;83.20
54938;DHT22;52756;52.826;6.214;2023-03-20T18:11:14;10.50;83.20
54938;DHT22;52756;52.826;6.214;2023-03-20T18:13:39;10.50;83.20
54938;DHT22;52756;52.826;6.214;2023-03-20T18:16:06;10.50;83.30
54938;DHT22;52756;52.826;6.214;2023-03-20T18:18:35;10.50;83.40
54938;DHT22;52756;52.826;6.214;2023-03-20T18:21:01;10.50;83.40
54938;DHT22;52756;52.826;6.214;2023-03-20T18:23:26;10.50;83.40
54938;DHT22;52756;52.826;6.214;2023-03-20T18:25:52;10.50;83.50
54938;DHT22;52756;52.826;6.214;2023-03-20T18:28:18;10.50;83.50
54938;DHT22;52756;52.826;6.214;2023-03-20T18:30:47;10.50;83.60
54938;DHT22;52756;52.826;6.214;2023-03-20T18:33:14;10.40;83.50
54938;DHT22;52756;52.826;6.214;2023-03-20T18:35:39;10.40;83.50
54938;DHT22;52756;52.826;6.214;2023-03-20T18:38:05;10.40;83.90
54938;DHT22;52756;52.826;6.214;2023-03-20T18:40:33;10.40;83.60
54938;DHT22;52756;52.826;6.214;2023-03-20T18:42:59;10.50;83.70
54938;DHT22;52756;52.826;6.214;2023-03-20T18:45:27;10.40;83.70
54938;DHT22;52756;52.826;6.214;2023-03-20T18:47:54;10.40;83.80
54938;DHT22;52756;52.826;6.214;2023-03-20T18:50:26;10.40;83.80
54938;DHT22;52756;52.826;6.214;2023-03-20T18:52:53;10.40;83.80
54938;DHT22;52756;52.826;6.214;2023-03-20T18:55:20;10.40;83.90
54938;DHT22;52756;52.826;6.214;2023-03-20T18:57:48;10.40;83.90
54938;DHT22;52756;52.826;6.214;2023-03-20T19:00:22;10.40;83.90
54938;DHT22;52756;52.826;6.214;2023-03-20T19:02:51;10.40;84.00